createdAt,value
2023-04-11T00:00:38.189Z,5.60
2023-04-11T00:03:07.331Z,5.90
2023-04-11T00:05:34.435Z,5.97
2023-04-11T00:08:01.638Z,6.00
2023-04-11T00:10:28.740Z,5.87
2023-04-11T00:12:56.898Z,8.23
2023-04-11T00:15:27.090Z,5.30
2023-04-11T00:17:55.054Z,6.10
2023-04-11T00:20:22.241Z,5.20
2023-04-11T00:22:49.105Z,5.60
2023-04-11T00:25:15.886Z,7.53
2023-04-11T00:27:42.659Z,5.83
2023-04-11T00:30:09.693Z,5.67
2023-04-11T00:32:36.746Z,6.50
2023-04-11T00:35:03.906Z,5.13
2023-04-11T00:37:36.369Z,4.90
2023-04-11T00:40:24.377Z,5.10
2023-04-11T00:42:51.124Z,4.80
2023-04-11T00:45:17.849Z,6.40
2023-04-11T00:47:44.793Z,6.40
2023-04-11T00:50:14.236Z,6.97
2023-04-11T00:52:41.998Z,5.93
2023-04-11T00:55:10.589Z,6.30
2023-04-11T00:57:37.922Z,6.63
2023-04-11T01:00:05.228Z,7.00
2023-04-11T01:02:32.202Z,7.27
2023-04-11T01:05:00.810Z,6.17
2023-04-11T01:07:28.972Z,7.27
2023-04-11T01:09:56.200Z,6.57
2023-04-11T01:12:23.427Z,7.43
2023-04-11T01:14:51.029Z,8.83
2023-04-11T01:17:17.747Z,7.23
2023-04-11T01:19:44.471Z,8.57
2023-04-11T01:22:14.754Z,7.73
2023-04-11T01:24:41.453Z,8.20
2023-04-11T01:27:08.393Z,8.00
2023-04-11T01:29:35.164Z,9.60
2023-04-11T01:32:01.839Z,6.80
2023-04-11T01:34:31.031Z,7.00
2023-04-11T01:36:57.971Z,9.37
2023-04-11T01:39:24.873Z,6.13
2023-04-11T01:41:53.122Z,7.17
2023-04-11T01:44:20.793Z,8.20
2023-04-11T01:46:47.518Z,5.83
2023-04-11T01:49:15.977Z,6.80
2023-04-11T01:51:42.850Z,6.83
2023-04-11T01:54:09.472Z,7.13
2023-04-11T01:56:37.821Z,7.53
2023-04-11T01:59:04.458Z,7.10
2023-04-11T02:01:32.045Z,7.47
2023-04-11T02:03:58.858Z,8.27
2023-04-11T02:06:27.470Z,8.70
2023-04-11T02:08:54.601Z,7.27
2023-04-11T02:11:21.647Z,7.00
2023-04-11T02:13:49.197Z,7.50
2023-04-11T02:16:18.037Z,6.80
2023-04-11T02:18:46.303Z,8.40
2023-04-11T02:21:15.916Z,9.53
2023-04-11T02:23:42.636Z,8.60
2023-04-11T02:26:09.360Z,7.40
2023-04-11T02:28:36.645Z,9.30
2023-04-11T02:31:03.807Z,7.30
2023-04-11T02:33:30.736Z,7.80
2023-04-11T02:35:57.519Z,8.73
2023-04-11T02:38:24.331Z,7.13
2023-04-11T02:40:51.119Z,11.47
2023-04-11T02:43:17.782Z,7.60
2023-04-11T02:45:44.515Z,10.17
2023-04-11T02:48:12.632Z,8.03
2023-04-11T02:50:43.591Z,11.00
2023-04-11T02:53:10.554Z,9.10
2023-04-11T02:55:43.432Z,8.80
2023-04-11T02:58:10.673Z,9.30
2023-04-11T03:00:38.137Z,9.07
2023-04-11T03:03:07.936Z,9.03
2023-04-11T03:05:40.232Z,10.17
2023-04-11T03:08:09.036Z,8.13
2023-04-11T03:10:38.153Z,10.17
2023-04-11T03:13:05.730Z,9.53
2023-04-11T03:15:32.617Z,10.10
2023-04-11T03:18:04.189Z,11.67
2023-04-11T03:20:30.962Z,8.90
2023-04-11T03:22:57.583Z,11.27
2023-04-11T03:25:25.143Z,11.80
2023-04-11T03:27:52.516Z,10.83
2023-04-11T03:30:19.227Z,11.77
2023-04-11T03:32:47.880Z,11.43
2023-04-11T03:35:14.946Z,12.50
2023-04-11T03:37:45.688Z,10.23
2023-04-11T03:40:15.222Z,10.70
2023-04-11T03:42:46.810Z,10.37
2023-04-11T03:45:17.982Z,9.23
2023-04-11T03:47:45.743Z,11.20
2023-04-11T03:50:14.558Z,9.50
2023-04-11T03:52:47.156Z,11.83
2023-04-11T03:55:15.742Z,11.83
2023-04-11T03:57:43.175Z,9.77
2023-04-11T04:00:10.828Z,10.47
2023-04-11T04:02:52.931Z,10.60
2023-04-11T04:05:20.254Z,12.97
2023-04-11T04:07:46.836Z,11.77
2023-04-11T04:10:25.677Z,13.47
2023-04-11T04:12:54.065Z,11.20
2023-04-11T04:15:23.836Z,12.60
2023-04-11T04:17:51.773Z,10.53
2023-04-11T04:20:44.900Z,11.30
2023-04-11T04:23:14.258Z,10.07
2023-04-11T04:26:13.200Z,11.43
2023-04-11T04:28:46.534Z,11.07
2023-04-11T04:31:22.380Z,11.43
2023-04-11T04:33:50.609Z,10.33
2023-04-11T04:36:21.903Z,9.83
2023-04-11T04:38:50.477Z,12.03
2023-04-11T04:41:17.302Z,12.23
2023-04-11T04:43:58.104Z,13.63
2023-04-11T04:46:42.394Z,10.47
2023-04-11T04:49:09.315Z,13.73
2023-04-11T04:51:38.603Z,11.67
2023-04-11T04:54:05.885Z,12.97
2023-04-11T04:56:32.632Z,13.90
2023-04-11T04:58:59.454Z,10.77
2023-04-11T05:01:28.202Z,10.40
2023-04-11T05:04:01.538Z,9.73
2023-04-11T05:06:43.265Z,10.97
2023-04-11T05:09:10.105Z,9.87
2023-04-11T05:11:36.962Z,11.17
2023-04-11T05:14:03.719Z,13.73
2023-04-11T05:16:30.545Z,14.03
2023-04-11T05:18:57.399Z,14.50
2023-04-11T05:21:24.231Z,14.87
2023-04-11T05:23:52.376Z,11.63
2023-04-11T05:26:19.250Z,11.97
2023-04-11T05:28:46.030Z,10.87
2023-04-11T05:31:17.110Z,13.37
2023-04-11T05:33:44.876Z,12.53
2023-04-11T05:36:14.147Z,9.87
2023-04-11T05:38:41.622Z,11.80
2023-04-11T05:41:08.957Z,12.77
2023-04-11T05:43:36.006Z,12.10
2023-04-11T05:46:03.963Z,11.60
2023-04-11T05:48:31.273Z,13.20
2023-04-11T05:50:58.546Z,11.47
2023-04-11T05:53:25.242Z,11.60
2023-04-11T05:55:52.134Z,12.43
2023-04-11T05:58:18.913Z,13.13
2023-04-11T06:00:46.073Z,11.27
2023-04-11T06:03:13.345Z,14.37
2023-04-11T06:05:40.614Z,14.67
2023-04-11T06:08:08.294Z,12.93
2023-04-11T06:10:35.435Z,13.30
2023-04-11T06:13:02.090Z,12.70
2023-04-11T06:15:29.453Z,13.33
2023-04-11T06:17:56.212Z,8.97
2023-04-11T06:20:23.728Z,9.40
2023-04-11T06:22:53.802Z,8.57
2023-04-11T06:25:21.551Z,4.70
2023-04-11T06:27:48.562Z,2.67
2023-04-11T06:30:15.598Z,4.43
2023-04-11T06:32:42.413Z,2.43
2023-04-11T06:35:09.608Z,1.67
2023-04-11T06:37:36.308Z,2.10
2023-04-11T06:40:05.597Z,2.00
2023-04-11T06:42:32.666Z,1.63
2023-04-11T06:44:59.437Z,1.40
2023-04-11T06:47:26.167Z,2.00
2023-04-11T06:49:52.870Z,1.50
2023-04-11T06:52:19.535Z,1.07
2023-04-11T06:54:48.014Z,2.10
2023-04-11T06:57:14.679Z,1.20
2023-04-11T06:59:41.469Z,3.20
2023-04-11T07:02:08.333Z,1.47
2023-04-11T07:04:35.133Z,1.77
2023-04-11T07:07:02.036Z,5.53
2023-04-11T07:09:28.830Z,2.57
2023-04-11T07:11:56.255Z,3.17
2023-04-11T07:14:22.913Z,3.13
2023-04-11T07:16:49.598Z,1.20
2023-04-11T07:19:16.348Z,2.50
2023-04-11T07:21:42.998Z,1.37
2023-04-11T07:24:11.849Z,1.83
2023-04-11T07:26:38.718Z,2.23
2023-04-11T07:29:07.231Z,4.40
2023-04-11T07:31:36.336Z,1.13
2023-04-11T07:34:03.067Z,1.50
2023-04-11T07:36:29.704Z,8.33
2023-04-11T07:38:57.649Z,4.93
2023-04-11T07:41:24.355Z,1.80
2023-04-11T07:43:51.253Z,3.33
2023-04-11T07:46:17.968Z,1.80
2023-04-11T07:48:44.648Z,1.30
2023-04-11T07:51:11.397Z,1.63
2023-04-11T07:53:38.100Z,5.83
2023-04-11T07:56:05.093Z,1.30
2023-04-11T07:58:32.084Z,1.10
2023-04-11T08:00:59.203Z,1.20
2023-04-11T08:03:27.073Z,1.63
2023-04-11T08:05:54.274Z,3.63
2023-04-11T08:08:21.046Z,1.67
2023-04-11T08:10:48.579Z,1.40
2023-04-11T08:13:16.312Z,1.20
2023-04-11T08:15:43.131Z,3.13
2023-04-11T08:18:12.168Z,1.80
2023-04-11T08:20:40.737Z,4.23
2023-04-11T08:23:08.824Z,3.43
2023-04-11T08:25:36.643Z,1.57
2023-04-11T08:28:05.117Z,1.50
2023-04-11T08:30:32.333Z,1.77
2023-04-11T08:32:59.336Z,2.03
2023-04-11T08:35:26.167Z,2.07
2023-04-11T08:37:52.889Z,2.53
2023-04-11T08:40:19.678Z,2.33
2023-04-11T08:42:46.982Z,2.23
2023-04-11T08:45:13.692Z,1.73
2023-04-11T08:47:41.926Z,1.73
2023-04-11T08:50:09.978Z,4.97
2023-04-11T08:52:39.575Z,2.10
2023-04-11T08:55:06.520Z,0.87
2023-04-11T08:57:33.297Z,5.80
2023-04-11T09:00:14.174Z,1.57
2023-04-11T09:02:59.439Z,1.17
2023-04-11T09:05:40.623Z,2.60
2023-04-11T09:08:12.669Z,2.80
2023-04-11T09:10:40.971Z,1.43
2023-04-11T09:13:20.581Z,8.73
2023-04-11T09:15:47.811Z,1.00
2023-04-11T09:18:34.267Z,1.73
2023-04-11T09:21:03.703Z,3.40
2023-04-11T09:23:30.479Z,1.30
2023-04-11T09:25:57.418Z,4.60
2023-04-11T09:28:25.671Z,4.30
2023-04-11T09:30:54.897Z,4.20
2023-04-11T09:33:28.318Z,1.57
2023-04-11T09:35:56.822Z,1.93
2023-04-11T09:38:35.093Z,2.70
2023-04-11T09:41:03.651Z,3.10
2023-04-11T09:43:55.640Z,4.73
2023-04-11T09:46:23.086Z,7.67
2023-04-11T09:48:52.169Z,7.53
2023-04-11T09:51:31.838Z,6.40
2023-04-11T09:54:03.593Z,5.70
2023-04-11T09:56:31.376Z,3.40
2023-04-11T09:59:00.158Z,5.90
2023-04-11T10:01:27.434Z,4.57
2023-04-11T10:03:55.767Z,2.70
2023-04-11T10:06:34.329Z,8.70
2023-04-11T10:09:10.988Z,4.87
2023-04-11T10:11:41.399Z,1.53
2023-04-11T10:14:08.206Z,1.30
2023-04-11T10:16:35.091Z,10.63
2023-04-11T10:19:01.954Z,6.10
2023-04-11T10:21:34.725Z,2.03
2023-04-11T10:24:23.333Z,3.17
2023-04-11T10:26:55.474Z,5.43
2023-04-11T10:29:28.186Z,3.53
2023-04-11T10:32:13.177Z,2.03
2023-04-11T10:35:00.575Z,2.50
2023-04-11T10:37:30.443Z,1.73
2023-04-11T10:40:12.301Z,2.60
2023-04-11T10:42:43.512Z,4.43
2023-04-11T10:45:19.339Z,6.33
2023-04-11T10:47:51.970Z,3.83
2023-04-11T10:50:28.431Z,3.30
2023-04-11T10:52:59.647Z,3.53
2023-04-11T10:55:28.887Z,2.03
2023-04-11T10:58:22.325Z,2.90
2023-04-11T11:00:52.336Z,5.37
2023-04-11T11:03:30.769Z,3.33
2023-04-11T11:06:03.426Z,5.03
2023-04-11T11:08:35.689Z,1.50
2023-04-11T11:11:06.937Z,3.60
2023-04-11T11:13:43.037Z,5.10
2023-04-11T11:16:16.725Z,1.80
2023-04-11T11:18:49.800Z,1.73
2023-04-11T11:21:27.808Z,2.30
2023-04-11T11:24:01.028Z,3.30
2023-04-11T11:26:44.096Z,4.47
2023-04-11T11:29:11.358Z,2.40
2023-04-11T11:31:45.473Z,4.10
2023-04-11T11:34:23.586Z,6.90
2023-04-11T11:36:52.671Z,1.20
2023-04-11T11:39:21.149Z,1.00
2023-04-11T11:41:49.652Z,1.90
2023-04-11T11:44:24.131Z,5.40
2023-04-11T11:47:18.098Z,1.53
2023-04-11T11:49:52.282Z,2.60
2023-04-11T11:52:44.745Z,1.27
2023-04-11T11:55:22.395Z,1.50
2023-04-11T11:57:50.191Z,1.53
2023-04-11T12:00:25.072Z,1.77
2023-04-11T12:02:53.335Z,1.30
2023-04-11T12:05:20.612Z,5.20
2023-04-11T12:07:47.251Z,2.30
2023-04-11T12:10:16.705Z,1.77
2023-04-11T12:12:53.222Z,2.97
2023-04-11T12:15:23.182Z,2.27
2023-04-11T12:17:52.032Z,2.50
2023-04-11T12:20:26.799Z,1.50
2023-04-11T12:22:54.809Z,3.47
2023-04-11T12:25:22.225Z,1.80
2023-04-11T12:27:48.945Z,6.80
2023-04-11T12:30:15.830Z,6.30
2023-04-11T12:32:43.377Z,2.27
2023-04-11T12:35:11.005Z,1.13
2023-04-11T12:37:38.520Z,1.10
2023-04-11T12:40:12.918Z,2.07
2023-04-11T12:42:49.523Z,1.83
2023-04-11T12:45:20.358Z,1.60
2023-04-11T12:47:47.997Z,1.30
2023-04-11T12:50:14.803Z,0.90
2023-04-11T12:52:41.852Z,1.40
2023-04-11T12:55:11.207Z,1.43
2023-04-11T12:57:37.911Z,1.63
2023-04-11T13:00:08.920Z,1.63
2023-04-11T13:02:42.956Z,4.17
2023-04-11T13:05:13.870Z,1.57
2023-04-11T13:07:41.178Z,3.17
2023-04-11T13:10:08.382Z,1.17
2023-04-11T13:12:41.156Z,1.40
2023-04-11T13:15:11.749Z,1.63
2023-04-11T13:17:38.999Z,1.30
2023-04-11T13:20:10.721Z,5.37
2023-04-11T13:22:42.288Z,1.57
2023-04-11T13:25:12.426Z,2.40
2023-04-11T13:27:40.245Z,2.80
2023-04-11T13:30:08.260Z,1.20
2023-04-11T13:32:34.988Z,1.93
2023-04-11T13:35:02.178Z,2.73
2023-04-11T13:37:29.102Z,1.40
2023-04-11T13:39:55.785Z,1.60
2023-04-11T13:42:22.629Z,1.63
2023-04-11T13:44:49.377Z,4.10
2023-04-11T13:47:16.203Z,5.60
2023-04-11T13:49:42.860Z,1.30
2023-04-11T13:52:09.500Z,2.20
2023-04-11T13:54:37.771Z,2.60
2023-04-11T13:57:07.606Z,1.47
2023-04-11T13:59:34.568Z,2.77
2023-04-11T14:02:06.940Z,1.40
2023-04-11T14:04:34.327Z,2.83
2023-04-11T14:07:01.121Z,1.23
2023-04-11T14:09:27.911Z,1.30
2023-04-11T14:11:54.758Z,3.80
2023-04-11T14:14:21.813Z,1.33
2023-04-11T14:16:48.554Z,3.07
2023-04-11T14:19:15.662Z,3.27
2023-04-11T14:21:42.475Z,2.90
2023-04-11T14:24:09.542Z,2.10
2023-04-11T14:26:36.281Z,1.80
2023-04-11T14:29:03.032Z,2.60
2023-04-11T14:31:30.415Z,2.20
2023-04-11T14:33:57.528Z,1.20
2023-04-11T14:36:24.483Z,7.30
2023-04-11T14:38:51.138Z,1.20
2023-04-11T14:41:19.339Z,2.23
2023-04-11T14:43:46.195Z,2.73
2023-04-11T14:46:12.976Z,1.37
2023-04-11T14:48:39.692Z,1.70
2023-04-11T14:51:07.130Z,3.10
2023-04-11T14:53:33.812Z,1.40
2023-04-11T14:56:04.315Z,1.33
2023-04-11T14:58:31.196Z,1.67
2023-04-11T15:00:58.297Z,2.00
2023-04-11T15:03:25.322Z,1.73
2023-04-11T15:05:52.256Z,4.50
2023-04-11T15:08:19.021Z,8.77
2023-04-11T15:10:45.725Z,2.60
2023-04-11T15:13:12.941Z,1.90
2023-04-11T15:15:39.653Z,2.07
2023-04-11T15:18:27.840Z,4.07
2023-04-11T15:20:56.667Z,2.83
2023-04-11T15:23:23.675Z,1.30
2023-04-11T15:26:01.525Z,2.17
2023-04-11T15:28:39.442Z,2.03
2023-04-11T15:31:08.171Z,2.40
2023-04-11T15:33:35.163Z,1.20
2023-04-11T15:36:02.336Z,1.40
2023-04-11T15:38:29.367Z,2.27
2023-04-11T15:41:00.033Z,1.63
2023-04-11T15:43:27.122Z,2.03
2023-04-11T15:45:54.489Z,2.07
2023-04-11T15:48:21.569Z,1.43
2023-04-11T15:50:48.295Z,1.47
2023-04-11T15:53:14.964Z,1.50
2023-04-11T15:55:44.325Z,2.27
2023-04-11T15:58:11.353Z,2.70
2023-04-11T16:00:39.186Z,2.00
2023-04-11T16:03:10.784Z,1.37
2023-04-11T16:05:40.635Z,2.53
2023-04-11T16:08:07.883Z,3.00
2023-04-11T16:10:34.630Z,2.87
2023-04-11T16:13:02.474Z,1.77
2023-04-11T16:15:29.081Z,1.20
2023-04-11T16:17:55.867Z,1.83
2023-04-11T16:20:22.951Z,1.67
2023-04-11T16:22:49.648Z,2.00
2023-04-11T16:25:19.429Z,1.50
2023-04-11T16:27:48.889Z,2.37
2023-04-11T16:30:16.887Z,3.13
2023-04-11T16:32:44.126Z,3.93
2023-04-11T16:35:11.223Z,1.90
2023-04-11T16:37:37.917Z,2.30
2023-04-11T16:40:09.146Z,1.60
2023-04-11T16:42:35.843Z,1.70
2023-04-11T16:45:02.691Z,1.27
2023-04-11T16:47:29.427Z,2.10
2023-04-11T16:49:56.313Z,2.00
2023-04-11T16:52:23.005Z,2.03
2023-04-11T16:54:51.070Z,2.67
2023-04-11T16:57:18.500Z,2.07
2023-04-11T16:59:46.046Z,3.60
2023-04-11T17:02:12.787Z,1.63
2023-04-11T17:04:39.529Z,1.10
2023-04-11T17:07:06.595Z,3.67
2023-04-11T17:09:33.365Z,2.70
2023-04-11T17:12:02.176Z,6.33
2023-04-11T17:14:29.270Z,2.03
2023-04-11T17:16:55.957Z,1.70
2023-04-11T17:19:23.804Z,1.40
2023-04-11T17:21:51.245Z,2.80
2023-04-11T17:24:17.905Z,6.47
2023-04-11T17:26:45.062Z,1.63
2023-04-11T17:29:14.549Z,1.40
2023-04-11T17:31:41.199Z,1.00
2023-04-11T17:34:07.908Z,1.40
2023-04-11T17:36:42.354Z,4.93
2023-04-11T17:39:17.082Z,1.30
2023-04-11T17:41:45.538Z,2.50
2023-04-11T17:44:12.717Z,3.40
2023-04-11T17:46:39.695Z,1.30
2023-04-11T17:49:06.443Z,2.53
2023-04-11T17:51:33.237Z,2.07
2023-04-11T17:54:00.077Z,11.23
2023-04-11T17:56:27.058Z,8.13
2023-04-11T17:58:53.752Z,6.40
2023-04-11T18:01:20.841Z,6.03
2023-04-11T18:03:47.705Z,2.43
2023-04-11T18:06:14.585Z,1.73
2023-04-11T18:11:11.120Z,2.37
2023-04-11T18:13:37.818Z,2.20
2023-04-11T18:16:04.608Z,2.93
2023-04-11T18:18:31.359Z,1.67
2023-04-11T18:21:05.811Z,1.90
2023-04-11T18:23:34.156Z,1.70
2023-04-11T18:26:00.982Z,5.80
2023-04-11T18:28:27.758Z,3.20
2023-04-11T18:30:54.452Z,6.30
2023-04-11T18:33:21.246Z,4.03
2023-04-11T18:35:48.122Z,3.53
2023-04-11T18:38:14.897Z,4.33
2023-04-11T18:40:41.652Z,5.63
2023-04-11T18:43:08.372Z,4.00
2023-04-11T18:45:35.557Z,5.67
2023-04-11T18:48:02.519Z,4.23
2023-04-11T18:50:30.780Z,4.43
2023-04-11T18:53:02.173Z,8.93
2023-04-11T18:55:31.818Z,4.63
2023-04-11T18:58:00.460Z,5.60
2023-04-11T19:00:29.540Z,5.70
2023-04-11T19:02:56.482Z,4.30
2023-04-11T19:05:25.565Z,6.90
2023-04-11T19:07:52.810Z,6.10
2023-04-11T19:10:20.226Z,5.13
2023-04-11T19:12:47.006Z,5.03
2023-04-11T19:15:14.065Z,5.80
2023-04-11T19:17:41.224Z,3.80
2023-04-11T19:20:12.606Z,4.20
2023-04-11T19:22:43.705Z,6.00
2023-04-11T19:25:12.020Z,9.87
2023-04-11T19:27:40.327Z,5.60
2023-04-11T19:30:28.686Z,3.60
2023-04-11T19:32:56.325Z,3.90
2023-04-11T19:35:24.412Z,4.80
2023-04-11T19:37:51.461Z,5.73
2023-04-11T19:40:18.772Z,5.87
2023-04-11T19:42:45.874Z,2.90
2023-04-11T19:45:12.645Z,2.80
2023-04-11T19:47:40.725Z,5.00
2023-04-11T19:50:13.503Z,3.77
2023-04-11T19:52:41.603Z,3.47
2023-04-11T19:55:09.449Z,3.40
2023-04-11T19:57:38.350Z,3.90
2023-04-11T20:00:17.248Z,3.10
2023-04-11T20:02:45.915Z,2.53
2023-04-11T20:05:18.005Z,5.63
2023-04-11T20:07:46.197Z,2.20
2023-04-11T20:10:14.417Z,3.33
2023-04-11T20:12:41.370Z,1.53
2023-04-11T20:15:09.295Z,2.53
2023-04-11T20:17:36.080Z,3.87
2023-04-11T20:20:06.049Z,4.63
2023-04-11T20:22:33.187Z,5.70
2023-04-11T20:24:59.946Z,4.63
2023-04-11T20:27:28.174Z,9.10
2023-04-11T20:29:56.859Z,7.03
2023-04-11T20:32:23.797Z,7.80
2023-04-11T20:34:50.585Z,8.60
2023-04-11T20:37:18.974Z,5.43
2023-04-11T20:39:47.686Z,9.37
2023-04-11T20:42:15.371Z,11.13
2023-04-11T20:44:42.700Z,10.20
2023-04-11T20:47:09.428Z,8.17
2023-04-11T20:49:36.190Z,12.33
2023-04-11T20:52:02.959Z,15.53
2023-04-11T20:54:30.121Z,20.50
2023-04-11T20:56:56.815Z,18.23
2023-04-11T20:59:23.474Z,15.00
2023-04-11T21:01:50.216Z,18.50
2023-04-11T21:04:18.700Z,13.17
2023-04-11T21:06:46.071Z,14.10
2023-04-11T21:09:12.916Z,15.10
2023-04-11T21:11:39.538Z,18.83
2023-04-11T21:14:06.691Z,17.30
2023-04-11T21:16:33.731Z,18.77
2023-04-11T21:19:00.452Z,17.60
2023-04-11T21:21:27.084Z,14.90
2023-04-11T21:23:54.065Z,11.40
2023-04-11T21:26:23.681Z,10.60
2023-04-11T21:28:50.588Z,9.43
2023-04-11T21:31:17.383Z,13.50
2023-04-11T21:33:46.180Z,13.20
2023-04-11T21:36:12.902Z,11.43
2023-04-11T21:38:39.600Z,9.30
2023-04-11T21:41:06.636Z,6.70
2023-04-11T21:43:33.245Z,11.57
2023-04-11T21:45:59.899Z,9.90
2023-04-11T21:48:26.542Z,13.10
2023-04-11T21:50:53.317Z,6.87
2023-04-11T21:53:20.020Z,5.70
2023-04-11T21:55:47.062Z,4.43
2023-04-11T21:58:26.261Z,6.17
2023-04-11T22:00:55.828Z,4.50
2023-04-11T22:03:22.994Z,6.63
2023-04-11T22:05:50.769Z,5.80
2023-04-11T22:08:20.384Z,3.97
2023-04-11T22:10:48.337Z,4.53
2023-04-11T22:13:17.385Z,5.20
2023-04-11T22:15:45.472Z,4.00
2023-04-11T22:18:12.754Z,4.80
2023-04-11T22:20:43.869Z,3.53
2023-04-11T22:23:13.183Z,3.60
2023-04-11T22:25:44.137Z,6.50
2023-04-11T22:28:14.005Z,5.73
2023-04-11T22:30:46.482Z,4.13
2023-04-11T22:33:16.919Z,6.20
2023-04-11T22:35:49.426Z,4.70
2023-04-11T22:38:16.912Z,9.80
2023-04-11T22:40:43.784Z,3.70
2023-04-11T22:43:10.711Z,3.77
2023-04-11T22:45:37.680Z,4.40
2023-04-11T22:48:06.091Z,5.93
2023-04-11T22:50:38.051Z,3.60
2023-04-11T22:53:05.585Z,3.60
2023-04-11T22:55:35.538Z,3.63
2023-04-11T22:58:03.080Z,5.20
2023-04-11T23:00:30.169Z,3.20
2023-04-11T23:02:59.624Z,4.33
2023-04-11T23:05:26.673Z,6.73
2023-04-11T23:07:53.487Z,4.10
2023-04-11T23:10:21.411Z,4.63
2023-04-11T23:12:49.410Z,3.40
2023-04-11T23:15:17.413Z,4.23
2023-04-11T23:17:44.970Z,3.90
2023-04-11T23:20:12.752Z,4.10
2023-04-11T23:22:42.263Z,5.20
2023-04-11T23:25:14.117Z,4.47
2023-04-11T23:27:44.684Z,4.17
2023-04-11T23:30:12.689Z,3.40
2023-04-11T23:32:39.996Z,3.70
2023-04-11T23:35:07.965Z,3.80
2023-04-11T23:37:35.562Z,4.80
2023-04-11T23:40:10.859Z,4.83
2023-04-11T23:42:38.719Z,4.13
2023-04-11T23:45:06.711Z,3.10
2023-04-11T23:47:34.267Z,3.13
2023-04-11T23:50:02.805Z,3.50
2023-04-11T23:52:30.512Z,6.90
2023-04-11T23:54:58.423Z,4.40
2023-04-11T23:57:25.231Z,3.10
2023-04-11T23:59:52.428Z,3.30
